Friday, January 30, 2015
13:59 UTC
  |  Log In   |  Register Free
Airport Search:

Williamsburg-Jamestown Airport
(KJGG)

Williamsburg-Jamestown Airport Diagram
No Airport Diagram Available

FAA data valid effective January 08, 2015 - March 05, 2015 (unless otherwise noted).

 
 
 
 
 
 
 
 
 
 
 
 
 
 

Current Aviation Weather for Williamsburg-Jamestown Airport (KJGG)

The most recent METAR observation for KJGG was updated at: 1310
METAR Summary (Translated METAR)
KJGG
301255Z AUTO 30003KT 10SM 06/M01 A2998 RMK AO1
KFAF
301258Z AUTO 30001KT 10SM OVC050 04/00 A2996 RMK AO2 SLP149 T00400003 $
(8.2 nm SE from KJGG)
KPHF
301254Z 20004KT 10SM OVC055 04/02 A2998 RMK AO2 SLP150 T00440017
(12.5 nm SE from KJGG)
TAF Summary (Translated TAF)
KFAF
(8.2 nm SE from KJGG)
3011/3117 24008KT 9999 BKN050 620505 QNH2989INS BECMG 3014/3015 31015G25KT 9999 BKN060 620604 QNH3000INS BECMG 3022/3023 30020G30KT 9999 SKC 510003 QNH3010INS BECMG 3111/3112 30012G20KT 9999 SKC QNH3027INS TX07/3018Z TNM04/3108Z
KPHF
(12.5 nm SE from KJGG)
301140Z 3012/3112 32014G22KT P6SM BKN050 FM301800 32020G28KT P6SM BKN050 FM302200 31016G23KT P6SM SCT040 FM310600 34010KT P6SM SKC
  Airport Weather Conditions for KJGG

 Current Weather at JGG
43° F

Northwest winds at 4.6 mph
JGG NOAA Radar

Pressure: 29.97 in
Humidity: 61%
Wind: Northwest at 4.6 MPH (4 KT)
Dew Point: 30.2°F
Visibility: 10.00 mi


Airport Weather Forecast for KJGG

Translated METAR and TAF for KJGG
Translated METAR for KJGG (1400 UTC 30 January 2015)
found at http://aviationweather.gov/adds/metars/
 
METAR text: KJGG 301335Z AUTO 31004KT 10SM 06/M01 A3000 RMK AO1
Conditions at: KJGG (WILLIAMSBURG , VA, US) observed 1335 UTC 30 January 2015
Temperature: 6.0°C (43°F)
Dewpoint: -1.0°C (30°F) [RH = 61%]
Pressure (altimeter): 30.00 inches Hg (1016.0 mb)
Winds: from the NW (310 degrees) at 5 MPH (4 knots; 2.1 m/s)
Visibility: 10 or more miles (16+ km)
Ceiling: unknown
Clouds: missing
Weather: automated observation with no human augmentation;
there may or may not be significant weather present at this time
Translated TAF for KJGG

There is no translated TAF available for this airport

Find All Airport Services Find A Hotel Find A Rental Car Find A Golf Course Find A Restaurant $100 Hamburger



FBO's on the Field
FBO Company Facility Photos Services Transportation Aviation Fuel Prices: Prices include tax
Catering Weather Repair Courtesy Rental Type 100LL JetA JetA+ MOGAS 8087
 
Williamsburg-Jamestown

This FBO has not yet been rated
FS:Shell
Last Updated: Jan-13
Login to update fuel prices
SS:
Contact Williamsburg-JamestownMore FBO Information
 
Add another FBO Facility Photos Catering Weather Repair Courtesy Rental Type 100LL JetA JetA+ MOGAS 8087
Services Transportation Aviation Fuel Prices: Prices include tax


model-print
model-print
model-print
model-print